KBKE/BKE METAR and TAF weather

Enter ICAO airport designator
Station Type Date Time Source
KBKE METAR 2020/12/02 04:53 UTC NOAA

KBKE 020453Z AUTO 00000KT 10SM CLR M07/M09 A3051 RMK AO2 SLP369 T10671094 $


Station Type Date Time Source
KBKE Decoded METAR 2020/12/02 04:53 UTC NOAA

BAKER MUNICIPAL AIRPORT, OR, United States (KBKE) 44-50N 117-49W 1024M
Dec 01, 2020 - 11:53 PM EST / 2020.12.02 0453 UTC
Wind: Calm:0
Visibility: 10 mile(s):0
Sky conditions: clear
Temperature: 19.9 F (-6.7 C)
Dew Point: 15.1 F (-9.4 C)
Relative Humidity: 81%
Pressure (altimeter): 30.51 in. Hg (1033 hPa)
ob: KBKE 020453Z AUTO 00000KT 10SM CLR M07/M09 A3051 RMK AO2 SLP369 T10671094
cycle: 5

Station Type Date Time Source
KBKE TAF 2020/12/05 18:27 UTC NOAA

TAF KBKE 051724Z 0518/0618 10014KT P6SM SKC
FM060100 11008KT P6SM SCT200
FM061000 VRB04KT P6SM VCSH OVC070
AMD NOT SKED

Example: see airport list